Time;durP1;ratioP1;P1;durP2;ratioP2;P2;SDS_P1;SDS_P2;PMS_P1;PMS_P2;Temp;Humidity;BMP_temperature;BMP_pressure;BME280_temperature;BME280_humidity;BME280_pressure;Samples;Min_cycle;Max_cycle;Signal;HPM_P1;HPM_P2
2023/07/15 00:00:21;;;;;;;1.65;1.25;;;25.10;42.00;;;;;;4922404;29;20040;-53
2023/07/15 00:02:50;;;;;;;2.50;1.73;;;25.00;41.90;;;;;;4931937;29;20043;-52
2023/07/15 00:05:30;;;;;;;5.03;1.75;;;25.00;41.90;;;;;;4932575;29;20040;-53
2023/07/15 00:07:57;;;;;;;2.35;1.25;;;25.00;42.00;;;;;;4926395;29;20039;-49
2023/07/15 00:10:26;;;;;;;4.07;1.48;;;25.00;42.00;;;;;;4928584;29;20047;-53
2023/07/15 00:12:58;;;;;;;1.67;1.58;;;24.90;41.50;;;;;;4930149;29;20039;-52
2023/07/15 00:15:28;;;;;;;2.28;1.63;;;24.90;41.40;;;;;;4932408;29;20405;-50
2023/07/15 00:17:58;;;;;;;1.42;1.33;;;24.90;41.70;;;;;;4907900;29;20404;-53
2023/07/15 00:20:28;;;;;;;1.55;1.45;;;24.90;42.00;;;;;;4922730;29;20072;-49
2023/07/15 00:23:03;;;;;;;1.92;1.25;;;24.90;41.60;;;;;;4932073;29;20036;-51
2023/07/15 00:25:34;;;;;;;3.03;1.70;;;24.90;41.50;;;;;;4931928;29;20639;-54
2023/07/15 00:28:01;;;;;;;1.90;1.35;;;24.90;41.50;;;;;;4932106;29;20098;-51
2023/07/15 00:30:33;;;;;;;1.80;1.60;;;25.00;41.20;;;;;;4911877;29;20151;-49
2023/07/15 00:33:00;;;;;;;2.20;1.50;;;25.00;41.20;;;;;;4921800;29;20047;-51
2023/07/15 00:35:29;;;;;;;2.13;1.70;;;25.00;41.00;;;;;;4914906;29;20126;-51
2023/07/15 00:37:58;;;;;;;3.25;1.80;;;24.90;41.40;;;;;;4915328;29;20075;-49
2023/07/15 00:40:28;;;;;;;1.67;1.45;;;25.00;41.20;;;;;;4909340;29;20082;-49
2023/07/15 00:43:32;;;;;;;3.42;1.50;;;25.00;41.20;;;;;;4911543;29;20039;-53
2023/07/15 00:46:21;;;;;;;3.30;1.63;;;25.00;41.10;;;;;;4895494;29;20051;-54
2023/07/15 00:48:57;;;;;;;1.70;1.60;;;25.00;41.00;;;;;;4911840;29;20052;-54
2023/07/15 00:51:33;;;;;;;2.22;1.60;;;25.00;40.90;;;;;;4912513;29;20055;-50
2023/07/15 00:54:07;;;;;;;1.92;1.40;;;25.00;41.10;;;;;;4924568;29;20039;-50
2023/07/15 00:56:37;;;;;;;2.80;1.63;;;25.00;40.80;;;;;;4914677;29;20052;-53
2023/07/15 00:59:06;;;;;;;1.70;1.60;;;24.90;40.90;;;;;;4913920;29;20040;-49
2023/07/15 01:01:34;;;;;;;2.25;1.77;;;24.90;41.10;;;;;;4913927;29;20141;-50
2023/07/15 01:04:02;;;;;;;2.65;1.90;;;24.90;41.00;;;;;;4931497;29;20091;-53
2023/07/15 01:06:33;;;;;;;4.70;1.83;;;24.90;41.10;;;;;;4913197;29;20142;-54
2023/07/15 01:09:07;;;;;;;1.67;1.58;;;24.90;40.90;;;;;;4919431;29;20103;-50
2023/07/15 01:11:34;;;;;;;2.55;1.65;;;24.90;41.00;;;;;;4923288;29;20429;-50
2023/07/15 01:14:09;;;;;;;2.15;1.38;;;24.90;41.30;;;;;;4929799;29;20063;-49
2023/07/15 01:16:37;;;;;;;3.50;1.48;;;24.90;41.10;;;;;;4914306;29;20054;-54
2023/07/15 01:19:05;;;;;;;1.92;1.60;;;24.90;41.00;;;;;;4931095;29;20067;-51
2023/07/15 01:21:36;;;;;;;2.92;1.58;;;24.90;41.00;;;;;;4921094;29;20040;-53
2023/07/15 01:24:06;;;;;;;2.67;1.42;;;24.90;41.30;;;;;;4907970;29;20047;-49
2023/07/15 01:26:33;;;;;;;2.40;1.65;;;24.90;41.20;;;;;;4914799;29;20047;-51
2023/07/15 01:29:00;;;;;;;2.03;1.40;;;24.80;41.00;;;;;;4914306;29;20094;-54
2023/07/15 01:31:33;;;;;;;1.98;1.60;;;24.80;41.30;;;;;;4904408;29;20056;-52
2023/07/15 01:34:02;;;;;;;1.40;1.30;;;24.80;41.40;;;;;;4925850;29;20053;-54
2023/07/15 01:36:29;;;;;;;1.38;1.20;;;24.80;41.50;;;;;;4930544;29;20107;-53
2023/07/15 01:38:57;;;;;;;1.48;1.38;;;24.80;41.40;;;;;;4913740;29;20047;-53
2023/07/15 01:41:27;;;;;;;2.22;1.40;;;24.70;41.40;;;;;;4911526;29;20072;-53
2023/07/15 01:43:53;;;;;;;2.70;1.65;;;24.80;41.60;;;;;;4924551;29;20114;-54
2023/07/15 01:46:20;;;;;;;2.15;1.63;;;24.70;41.30;;;;;;4934779;29;20385;-50
2023/07/15 01:48:48;;;;;;;1.42;1.30;;;24.70;41.20;;;;;;4934106;29;20074;-50
2023/07/15 01:51:17;;;;;;;1.50;1.40;;;24.70;41.60;;;;;;4924142;29;20393;-51
2023/07/15 01:53:44;;;;;;;2.72;1.42;;;24.70;41.30;;;;;;4915306;29;20032;-52
2023/07/15 01:56:11;;;;;;;2.22;1.33;;;24.70;41.60;;;;;;4935075;29;20050;-51
2023/07/15 01:58:38;;;;;;;2.25;1.48;;;24.70;41.60;;;;;;4915349;29;20382;-50
2023/07/15 02:01:10;;;;;;;1.40;1.30;;;24.70;41.40;;;;;;4908547;29;20040;-52
2023/07/15 02:03:41;;;;;;;1.85;1.50;;;24.70;41.20;;;;;;4932198;29;20655;-53
2023/07/15 02:06:08;;;;;;;2.03;1.17;;;24.70;41.40;;;;;;4935235;29;20569;-53
2023/07/15 02:08:37;;;;;;;1.83;1.23;;;24.70;41.50;;;;;;4908814;29;20048;-54
2023/07/15 02:11:04;;;;;;;1.85;1.75;;;24.70;41.60;;;;;;4907371;29;20081;-53
2023/07/15 02:13:31;;;;;;;2.88;1.17;;;24.70;41.50;;;;;;4914522;29;20047;-53
2023/07/15 02:16:00;;;;;;;1.40;1.30;;;24.60;41.30;;;;;;4916952;29;20048;-53
2023/07/15 02:18:31;;;;;;;1.60;1.48;;;24.60;41.40;;;;;;4931823;29;20505;-54
2023/07/15 02:21:04;;;;;;;2.88;1.10;;;24.60;41.40;;;;;;4914835;29;20043;-53
2023/07/15 02:23:36;;;;;;;2.45;1.75;;;24.60;41.30;;;;;;4916866;29;20127;-52
2023/07/15 02:26:02;;;;;;;2.90;1.70;;;24.60;41.70;;;;;;4915887;29;20039;-53
2023/07/15 02:28:32;;;;;;;2.58;1.13;;;24.60;41.80;;;;;;4928447;29;20066;-54
2023/07/15 02:31:04;;;;;;;1.83;1.30;;;24.60;41.80;;;;;;4928873;29;20111;-51
2023/07/15 02:33:30;;;;;;;3.05;1.42;;;24.50;41.90;;;;;;4925685;29;20602;-54
2023/07/15 02:35:57;;;;;;;2.28;1.45;;;24.50;41.90;;;;;;4917545;29;20050;-49
2023/07/15 02:38:26;;;;;;;2.38;1.40;;;24.50;42.20;;;;;;4933890;29;20056;-50
2023/07/15 02:40:56;;;;;;;2.03;1.40;;;24.50;42.10;;;;;;4924026;29;20095;-54
2023/07/15 02:43:23;;;;;;;1.50;0.95;;;24.50;42.00;;;;;;4911520;29;20457;-50
2023/07/15 02:45:51;;;;;;;2.85;1.33;;;24.50;42.20;;;;;;4916339;29;20075;-52
2023/07/15 02:48:24;;;;;;;;;;;24.50;42.50;;;;;;4914259;29;20056;-51
2023/07/15 02:50:55;;;;;;;2.78;1.10;;;24.50;42.00;;;;;;4906738;29;19927;-52
2023/07/15 02:53:33;;;;;;;2.05;1.05;;;24.50;42.20;;;;;;4916272;29;20420;-53
2023/07/15 02:56:00;;;;;;;1.05;0.95;;;24.50;42.60;;;;;;4926683;29;20036;-53
2023/07/15 02:58:31;;;;;;;3.50;1.50;;;24.50;42.80;;;;;;4925243;29;20047;-52
2023/07/15 03:00:58;;;;;;;1.33;1.23;;;24.40;42.50;;;;;;4932429;29;20040;-51
2023/07/15 03:03:28;;;;;;;1.52;1.40;;;24.50;42.80;;;;;;4915811;29;20103;-53
2023/07/15 03:05:55;;;;;;;1.70;1.60;;;24.40;42.50;;;;;;4906430;29;20102;-53
2023/07/15 03:08:21;;;;;;;1.70;1.50;;;24.40;42.60;;;;;;4919710;29;20056;-54
2023/07/15 03:10:50;;;;;;;2.70;1.67;;;24.40;42.20;;;;;;4928697;29;20123;-52
2023/07/15 03:13:20;;;;;;;1.42;1.20;;;24.40;41.90;;;;;;4927798;29;20043;-49
2023/07/15 03:15:57;;;;;;;1.38;1.23;;;24.30;41.90;;;;;;4916653;29;20035;-53
2023/07/15 03:18:25;;;;;;;;;;;24.40;42.50;;;;;;4917011;29;20122;-50
2023/07/15 03:20:56;;;;;;;2.55;1.00;;;24.40;42.00;;;;;;4917889;29;19927;-50
2023/07/15 03:23:25;;;;;;;1.27;1.17;;;24.40;42.00;;;;;;4905672;29;20050;-49
2023/07/15 03:25:54;;;;;;;1.25;1.05;;;24.40;42.20;;;;;;4925930;29;20047;-52
2023/07/15 03:28:23;;;;;;;1.63;1.30;;;24.30;42.00;;;;;;4909806;29;20070;-51
2023/07/15 03:30:57;;;;;;;1.70;1.10;;;24.30;42.20;;;;;;4924308;29;20099;-53
2023/07/15 03:33:24;;;;;;;2.53;1.52;;;24.30;42.70;;;;;;4908040;29;20055;-53
2023/07/15 03:35:53;;;;;;;3.45;1.20;;;24.30;42.40;;;;;;4933826;29;20046;-53
2023/07/15 03:38:20;;;;;;;1.30;1.20;;;24.40;42.10;;;;;;4933391;29;20607;-51
2023/07/15 03:40:52;;;;;;;6.80;1.60;;;24.30;42.30;;;;;;4927382;29;20048;-53
2023/07/15 03:43:22;;;;;;;0.85;0.82;;;24.30;42.10;;;;;;4912419;29;20052;-52
2023/07/15 03:45:48;;;;;;;1.48;1.10;;;24.30;42.00;;;;;;4936368;29;20126;-53
2023/07/15 03:48:15;;;;;;;2.50;1.60;;;24.40;42.10;;;;;;4932934;29;20050;-52
2023/07/15 03:50:46;;;;;;;1.42;1.33;;;24.40;41.80;;;;;;4928291;29;20068;-49
2023/07/15 03:53:13;;;;;;;1.33;1.13;;;24.40;41.80;;;;;;4922807;29;20079;-53
2023/07/15 03:55:47;;;;;;;1.70;1.20;;;24.40;41.80;;;;;;4933384;29;20086;-49
2023/07/15 03:58:14;;;;;;;2.53;1.25;;;24.40;41.80;;;;;;4933687;29;20070;-53
2023/07/15 04:00:41;;;;;;;2.17;0.82;;;24.50;42.00;;;;;;4926736;29;20147;-52
2023/07/15 04:03:10;;;;;;;1.40;1.30;;;24.50;41.90;;;;;;4921216;29;20048;-53
2023/07/15 04:05:39;;;;;;;1.35;1.00;;;24.50;41.70;;;;;;4933179;29;20043;-53
2023/07/15 04:08:13;;;;;;;1.23;1.13;;;24.50;42.00;;;;;;4931997;29;20036;-54
2023/07/15 04:10:40;;;;;;;1.17;1.08;;;24.60;42.10;;;;;;4925766;29;20063;-51
2023/07/15 04:13:08;;;;;;;2.75;1.20;;;24.50;41.90;;;;;;4923257;29;20071;-52
2023/07/15 04:15:35;;;;;;;1.60;1.20;;;24.60;42.00;;;;;;4932908;29;20047;-54
2023/07/15 04:18:02;;;;;;;1.42;1.33;;;24.60;42.10;;;;;;4933587;29;20046;-53
2023/07/15 04:20:28;;;;;;;1.73;1.00;;;24.60;42.30;;;;;;4908390;29;20055;-48
2023/07/15 04:22:55;;;;;;;1.08;0.88;;;24.60;41.90;;;;;;4925817;29;20114;-52
2023/07/15 04:25:25;;;;;;;1.38;0.90;;;24.60;42.10;;;;;;4932948;29;20078;-52
2023/07/15 04:27:54;;;;;;;3.80;1.65;;;24.60;42.40;;;;;;4923418;29;20378;-52
2023/07/15 04:30:28;;;;;;;1.15;0.95;;;24.60;42.30;;;;;;4929999;29;20071;-49
2023/07/15 04:32:57;;;;;;;0.98;0.90;;;24.60;42.40;;;;;;4925530;29;20106;-50
2023/07/15 04:35:28;;;;;;;1.23;1.13;;;24.60;42.50;;;;;;4925093;29;20046;-52
2023/07/15 04:37:55;;;;;;;2.25;1.10;;;24.70;42.70;;;;;;4929883;29;20067;-50
2023/07/15 04:40:21;;;;;;;3.13;1.10;;;24.60;42.50;;;;;;4930407;29;20497;-50
2023/07/15 04:42:52;;;;;;;1.20;1.10;;;24.60;42.60;;;;;;4922625;29;20798;-53
2023/07/15 04:45:21;;;;;;;1.92;1.30;;;24.70;42.60;;;;;;4935629;29;20078;-49
2023/07/15 04:47:47;;;;;;;1.10;1.10;;;24.60;42.40;;;;;;4931356;29;20052;-52
2023/07/15 04:50:29;;;;;;;2.65;1.20;;;24.70;42.60;;;;;;4921673;29;20044;-53
2023/07/15 04:52:57;;;;;;;2.20;1.08;;;24.70;42.90;;;;;;4925345;29;20103;-49
2023/07/15 04:55:24;;;;;;;1.75;1.17;;;24.70;42.80;;;;;;4932152;29;20106;-49
2023/07/15 04:57:51;;;;;;;1.45;1.30;;;24.70;42.60;;;;;;4924276;29;20500;-53
2023/07/15 05:00:20;;;;;;;2.53;1.20;;;24.70;42.90;;;;;;4907636;29;20501;-48
2023/07/15 05:02:47;;;;;;;1.33;1.23;;;24.70;43.30;;;;;;4932790;29;20087;-51
2023/07/15 05:05:14;;;;;;;3.63;1.58;;;24.70;43.10;;;;;;4926974;29;20038;-53
2023/07/15 05:07:41;;;;;;;2.25;1.13;;;24.70;43.00;;;;;;4926644;29;20047;-53
2023/07/15 05:10:24;;;;;;;2.03;1.23;;;24.70;43.20;;;;;;4925620;29;20047;-53
2023/07/15 05:12:50;;;;;;;1.23;1.10;;;24.80;43.20;;;;;;4922900;29;20050;-51
2023/07/15 05:15:24;;;;;;;2.95;1.25;;;24.80;43.40;;;;;;4951595;23;20050;-46
2023/07/15 05:17:55;;;;;;;1.35;1.25;;;24.80;44.00;;;;;;4933252;29;20509;-46
2023/07/15 05:20:23;;;;;;;1.02;0.93;;;24.80;43.40;;;;;;4936852;29;20043;-50
2023/07/15 05:22:55;;;;;;;1.13;1.02;;;24.80;43.40;;;;;;4935619;29;20512;-50
2023/07/15 05:25:21;;;;;;;2.63;1.33;;;24.90;43.40;;;;;;4938774;28;20043;-50
2023/07/15 05:27:48;;;;;;;2.35;1.30;;;24.90;43.80;;;;;;4936995;28;20645;-50
2023/07/15 05:30:22;;;;;;;2.08;1.25;;;24.90;43.30;;;;;;4935399;29;20090;-47
2023/07/15 05:32:49;;;;;;;1.33;1.23;;;24.90;43.40;;;;;;4954127;28;20118;-50
2023/07/15 05:35:17;;;;;;;1.50;1.33;;;24.90;44.00;;;;;;4956222;28;20036;-47
2023/07/15 05:37:45;;;;;;;2.25;1.10;;;25.00;43.90;;;;;;4953757;28;20066;-49
2023/07/15 05:40:14;;;;;;;0.90;0.90;;;25.00;43.70;;;;;;4951517;28;20035;-47
2023/07/15 05:42:42;;;;;;;1.35;1.10;;;25.00;43.90;;;;;;4950114;28;20684;-47
2023/07/15 05:45:10;;;;;;;1.13;1.00;;;25.10;43.70;;;;;;4951815;28;20090;-47
2023/07/15 05:47:38;;;;;;;1.38;0.98;;;25.10;43.60;;;;;;4954178;28;20500;-50
2023/07/15 05:50:06;;;;;;;2.15;1.45;;;25.10;43.80;;;;;;4953864;28;20086;-49
2023/07/15 05:52:37;;;;;;;1.25;1.15;;;25.20;43.90;;;;;;4952132;28;20180;-47
2023/07/15 05:55:04;;;;;;;1.90;1.27;;;25.20;43.90;;;;;;4950320;28;20044;-47
2023/07/15 05:57:36;;;;;;;1.98;1.17;;;25.30;44.00;;;;;;4953858;28;20658;-49
2023/07/15 06:00:09;;;;;;;1.75;0.98;;;25.30;43.80;;;;;;4953729;28;20063;-50
2023/07/15 06:02:38;;;;;;;2.78;1.20;;;25.30;43.80;;;;;;4953354;28;20445;-52
2023/07/15 06:05:10;;;;;;;1.38;1.08;;;25.40;43.50;;;;;;4948266;28;20046;-51
2023/07/15 06:07:36;;;;;;;1.10;1.00;;;25.40;43.70;;;;;;4953557;28;20055;-49
2023/07/15 06:10:03;;;;;;;3.25;1.20;;;25.50;43.50;;;;;;4953507;28;20047;-50
2023/07/15 06:12:30;;;;;;;1.73;0.90;;;25.60;43.70;;;;;;4949235;28;20535;-51
2023/07/15 06:14:59;;;;;;;2.25;1.23;;;25.70;43.70;;;;;;4953164;28;20460;-50
2023/07/15 06:17:30;;;;;;;2.70;1.20;;;25.70;43.60;;;;;;4953628;28;20563;-50
2023/07/15 06:19:57;;;;;;;2.87;1.20;;;25.80;43.90;;;;;;4950448;28;20524;-51
2023/07/15 06:22:24;;;;;;;2.53;1.45;;;25.80;43.50;;;;;;4953204;28;20051;-53
2023/07/15 06:24:51;;;;;;;1.17;1.08;;;25.80;43.30;;;;;;4947681;28;20043;-51
2023/07/15 06:27:19;;;;;;;1.75;1.35;;;25.90;43.30;;;;;;4933530;28;20135;-55
2023/07/15 06:29:47;;;;;;;2.47;1.00;;;25.90;43.50;;;;;;4949509;28;20630;-56
2023/07/15 06:32:14;;;;;;;2.55;1.23;;;26.00;43.00;;;;;;4947661;28;20130;-51
2023/07/15 06:34:40;;;;;;;1.88;0.80;;;26.00;43.30;;;;;;4953296;28;20066;-52
2023/07/15 06:37:07;;;;;;;1.30;1.23;;;26.10;43.30;;;;;;4954493;28;20095;-49
2023/07/15 06:39:34;;;;;;;1.83;1.50;;;26.20;43.30;;;;;;4950739;28;20039;-48
2023/07/15 06:42:00;;;;;;;1.35;1.25;;;26.20;43.20;;;;;;4949521;28;20043;-50
2023/07/15 06:44:28;;;;;;;2.40;1.23;;;26.30;43.30;;;;;;4937190;29;20451;-51
2023/07/15 06:46:55;;;;;;;1.60;1.00;;;26.30;43.40;;;;;;4952321;28;20040;-52
2023/07/15 06:49:22;;;;;;;1.10;1.00;;;26.40;43.60;;;;;;4947240;28;20073;-52
2023/07/15 06:51:48;;;;;;;2.42;1.13;;;26.50;43.50;;;;;;4950608;28;20086;-52
2023/07/15 06:54:17;;;;;;;1.98;1.60;;;26.60;43.80;;;;;;4950291;28;20400;-52
2023/07/15 06:56:44;;;;;;;2.55;1.30;;;26.60;43.40;;;;;;4944969;28;20118;-50
2023/07/15 06:59:11;;;;;;;1.08;1.02;;;26.70;43.40;;;;;;4951512;28;20114;-50
2023/07/15 07:01:37;;;;;;;3.10;1.27;;;26.80;44.00;;;;;;4953958;28;20109;-53
2023/07/15 07:04:05;;;;;;;1.23;1.13;;;26.90;43.10;;;;;;4953010;28;20063;-52
2023/07/15 07:06:31;;;;;;;1.42;1.33;;;27.00;43.30;;;;;;4949940;28;20040;-52
2023/07/15 07:08:58;;;;;;;2.78;1.10;;;27.10;43.50;;;;;;4946925;28;20058;-53
2023/07/15 07:11:25;;;;;;;1.67;1.08;;;27.10;43.60;;;;;;4941027;28;20072;-54
2023/07/15 07:13:51;;;;;;;5.90;1.15;;;27.10;43.60;;;;;;4951894;28;20043;-52
2023/07/15 07:16:21;;;;;;;4.57;1.17;;;27.20;43.60;;;;;;4952171;28;20504;-54
2023/07/15 07:18:47;;;;;;;3.17;1.20;;;27.30;43.80;;;;;;4949079;28;20126;-50
2023/07/15 07:21:14;;;;;;;1.40;1.30;;;27.40;43.70;;;;;;4947299;28;20058;-52
2023/07/15 07:23:43;;;;;;;1.00;1.00;;;27.50;43.90;;;;;;4952062;28;20166;-53
2023/07/15 07:26:12;;;;;;;1.90;1.27;;;27.50;44.00;;;;;;4951400;29;20043;-53
2023/07/15 07:28:43;;;;;;;1.60;1.15;;;27.60;44.30;;;;;;4947887;28;20603;-50
2023/07/15 07:31:16;;;;;;;1.48;0.77;;;27.70;43.20;;;;;;4948112;29;20043;-50
2023/07/15 07:33:45;;;;;;;1.50;0.90;;;27.70;43.00;;;;;;4952657;28;20043;-50
2023/07/15 07:36:19;;;;;;;2.45;1.00;;;27.80;43.20;;;;;;4952783;28;20035;-52
2023/07/15 07:38:47;;;;;;;1.30;1.20;;;27.80;43.40;;;;;;4951926;29;20122;-51
2023/07/15 07:41:17;;;;;;;3.95;1.42;;;27.80;42.90;;;;;;4946497;28;20051;-53
2023/07/15 07:43:49;;;;;;;1.27;0.95;;;27.90;42.90;;;;;;4951346;29;20077;-54
2023/07/15 07:46:15;;;;;;;1.85;0.88;;;28.00;43.00;;;;;;4952339;28;20043;-53
2023/07/15 07:48:45;;;;;;;1.40;1.30;;;28.00;42.70;;;;;;4951068;29;20067;-54
2023/07/15 07:51:12;;;;;;;2.83;1.10;;;28.00;42.90;;;;;;4948697;29;20054;-49
2023/07/15 07:53:43;;;;;;;1.00;0.90;;;28.10;43.10;;;;;;4952557;29;20053;-53
2023/07/15 07:56:11;;;;;;;2.15;1.02;;;28.10;43.30;;;;;;4953276;29;20038;-49
2023/07/15 07:58:39;;;;;;;2.30;1.80;;;28.20;43.50;;;;;;4947949;29;20062;-51
2023/07/15 08:01:06;;;;;;;1.50;1.15;;;28.30;43.00;;;;;;4943672;29;20047;-52
2023/07/15 08:03:35;;;;;;;3.92;1.42;;;28.30;42.90;;;;;;4951946;29;20058;-48
2023/07/15 08:06:11;;;;;;;1.02;0.98;;;28.40;42.50;;;;;;4953149;29;20778;-49
2023/07/15 08:08:38;;;;;;;1.00;0.93;;;28.40;42.70;;;;;;4935689;28;20046;-51
2023/07/15 08:11:05;;;;;;;3.17;1.20;;;28.50;42.60;;;;;;4940246;28;20043;-49
2023/07/15 08:13:31;;;;;;;2.88;0.90;;;28.50;42.50;;;;;;4945764;28;20042;-52
2023/07/15 08:15:59;;;;;;;2.50;2.03;;;28.60;42.70;;;;;;4942286;28;20410;-54
2023/07/15 08:18:28;;;;;;;1.80;1.10;;;28.70;42.80;;;;;;4937956;28;20047;-53
2023/07/15 08:20:54;;;;;;;1.58;1.13;;;28.70;42.60;;;;;;4950378;28;20122;-53
2023/07/15 08:23:23;;;;;;;5.43;1.48;;;28.80;42.60;;;;;;4946422;28;20114;-51
2023/07/15 08:25:53;;;;;;;1.40;0.90;;;28.90;42.30;;;;;;4948306;28;20047;-51
2023/07/15 08:28:20;;;;;;;1.50;1.30;;;28.90;42.30;;;;;;4951531;28;20097;-49
2023/07/15 08:30:46;;;;;;;3.17;1.50;;;29.00;42.10;;;;;;4951429;28;20043;-53
2023/07/15 08:33:13;;;;;;;2.47;1.33;;;29.00;41.90;;;;;;4946988;29;20432;-51
2023/07/15 08:35:40;;;;;;;1.20;1.10;;;29.00;42.80;;;;;;4945380;28;20044;-53
2023/07/15 08:38:09;;;;;;;1.17;0.93;;;29.00;42.10;;;;;;4951735;28;20102;-51
2023/07/15 08:40:36;;;;;;;1.20;1.10;;;29.00;42.30;;;;;;4948412;29;20074;-52
2023/07/15 08:43:04;;;;;;;1.98;1.05;;;29.00;42.70;;;;;;4947395;29;20710;-49
2023/07/15 08:45:34;;;;;;;1.48;0.90;;;29.00;42.60;;;;;;4951646;28;20546;-50
2023/07/15 08:48:01;;;;;;;0.85;0.85;;;29.00;42.30;;;;;;4951221;28;20051;-50
2023/07/15 08:50:33;;;;;;;1.88;0.93;;;29.00;42.40;;;;;;4948227;29;20518;-51
2023/07/15 08:53:01;;;;;;;1.40;1.30;;;29.00;42.50;;;;;;4940431;29;20075;-50
2023/07/15 08:55:29;;;;;;;1.15;1.05;;;29.00;42.70;;;;;;4950334;29;20069;-53
2023/07/15 08:57:59;;;;;;;2.13;1.20;;;29.00;43.00;;;;;;4949083;29;20122;-49
2023/07/15 09:00:26;;;;;;;2.05;0.98;;;29.10;43.10;;;;;;4948876;29;20043;-51
2023/07/15 09:02:53;;;;;;;1.48;0.98;;;29.10;43.20;;;;;;4948958;28;20040;-53
2023/07/15 09:05:20;;;;;;;2.97;0.80;;;29.10;43.30;;;;;;4952452;28;20043;-51
2023/07/15 09:07:54;;;;;;;1.63;0.93;;;29.10;43.40;;;;;;4948359;29;20110;-51
2023/07/15 09:10:21;;;;;;;1.60;1.00;;;29.10;43.80;;;;;;4946767;29;20043;-56
2023/07/15 09:12:55;;;;;;;3.47;0.80;;;29.00;43.60;;;;;;4946235;28;20055;-51
2023/07/15 09:15:22;;;;;;;1.30;0.77;;;29.10;44.00;;;;;;4945896;28;20067;-52
2023/07/15 09:17:56;;;;;;;0.60;0.60;;;29.00;44.10;;;;;;4947332;28;20043;-49
2023/07/15 09:20:25;;;;;;;1.23;0.70;;;29.00;44.50;;;;;;4950561;29;20114;-53
2023/07/15 09:22:54;;;;;;;0.60;0.60;;;29.00;44.80;;;;;;4929673;28;20118;-51
2023/07/15 09:25:23;;;;;;;0.70;0.68;;;29.00;45.10;;;;;;4947338;28;20074;-50
2023/07/15 09:27:50;;;;;;;2.53;0.70;;;29.10;45.00;;;;;;4950068;28;20051;-52
2023/07/15 09:30:18;;;;;;;0.80;0.75;;;29.10;45.10;;;;;;4950622;29;20516;-50
2023/07/15 09:32:45;;;;;;;0.98;0.70;;;29.10;45.10;;;;;;4936763;28;20413;-55
2023/07/15 09:35:14;;;;;;;1.77;0.68;;;29.10;45.10;;;;;;4949693;29;20039;-53
2023/07/15 09:37:40;;;;;;;3.30;0.93;;;29.10;45.30;;;;;;4951899;28;20047;-53
2023/07/15 09:40:08;;;;;;;1.05;0.75;;;29.10;45.60;;;;;;4942652;28;20146;-53
2023/07/15 09:42:55;;;;;;;2.70;1.10;;;29.10;45.60;;;;;;4945974;28;20043;-53
2023/07/15 09:45:41;;;;;;;1.60;0.70;;;29.10;45.80;;;;;;4949847;28;20051;-51
2023/07/15 09:48:14;;;;;;;0.90;0.60;;;29.00;45.80;;;;;;4942138;28;20053;-50
2023/07/15 09:50:41;;;;;;;;;;;29.00;46.20;;;;;;4941488;28;20043;-50
2023/07/15 09:53:09;;;;;;;0.90;0.90;;;29.00;45.60;;;;;;4951594;28;19922;-53
2023/07/15 09:55:40;;;;;;;1.88;0.70;;;28.90;46.20;;;;;;4948486;28;20053;-51
2023/07/15 09:58:23;;;;;;;0.77;0.77;;;28.90;46.90;;;;;;4923786;29;20043;-51
2023/07/15 10:01:03;;;;;;;0.73;0.73;;;28.90;47.10;;;;;;4950039;28;20094;-52
2023/07/15 10:03:43;;;;;;;2.35;0.93;;;28.90;47.10;;;;;;4954924;28;20043;-53
2023/07/15 10:06:11;;;;;;;0.93;0.80;;;28.90;47.30;;;;;;4945266;28;20539;-52
2023/07/15 10:08:41;;;;;;;1.35;1.08;;;28.90;48.20;;;;;;4950115;28;20086;-54
2023/07/15 10:11:08;;;;;;;1.55;0.82;;;28.90;47.70;;;;;;4945757;28;20046;-52
2023/07/15 10:13:36;;;;;;;0.88;0.70;;;28.80;47.70;;;;;;4947636;28;20071;-53
2023/07/15 10:16:05;;;;;;;0.80;0.75;;;28.80;47.80;;;;;;4953126;28;20063;-51
2023/07/15 10:18:32;;;;;;;1.25;1.15;;;28.80;47.90;;;;;;4954574;28;20118;-51
2023/07/15 10:21:05;;;;;;;0.75;0.75;;;28.80;48.00;;;;;;4946785;28;20047;-54
2023/07/15 10:23:33;;;;;;;2.45;1.05;;;28.80;48.80;;;;;;4937707;28;20575;-53
2023/07/15 10:26:03;;;;;;;1.23;0.80;;;28.80;48.40;;;;;;4951058;29;20046;-50
2023/07/15 10:28:34;;;;;;;0.80;0.80;;;28.90;48.30;;;;;;4954355;28;20637;-53
2023/07/15 10:31:11;;;;;;;1.00;0.50;;;28.90;48.20;;;;;;4951092;28;20404;-52
2023/07/15 10:33:53;;;;;;;1.23;0.80;;;29.00;48.50;;;;;;4951166;28;20035;-52
2023/07/15 10:36:40;;;;;;;1.37;0.90;;;29.00;48.50;;;;;;4953564;29;20729;-53
2023/07/15 10:39:17;;;;;;;1.05;0.85;;;29.00;48.60;;;;;;4944401;28;20047;-52
2023/07/15 10:41:53;;;;;;;1.02;0.90;;;29.10;48.60;;;;;;4943081;28;20052;-54
2023/07/15 10:44:25;;;;;;;3.25;0.80;;;29.10;48.90;;;;;;4953340;28;20550;-55
2023/07/15 10:46:52;;;;;;;1.17;0.60;;;29.20;48.70;;;;;;4952589;28;20122;-53
2023/07/15 10:49:21;;;;;;;2.28;0.60;;;29.20;48.10;;;;;;4949831;28;20854;-53
2023/07/15 10:51:52;;;;;;;0.80;0.70;;;29.30;48.00;;;;;;4951828;28;20048;-55
2023/07/15 10:54:21;;;;;;;0.70;0.70;;;29.40;47.80;;;;;;4939172;29;20097;-54
2023/07/15 10:56:48;;;;;;;0.85;0.68;;;29.50;47.70;;;;;;4953012;28;20065;-51
2023/07/15 10:59:15;;;;;;;0.80;0.80;;;29.50;47.60;;;;;;4949264;28;20662;-53
2023/07/15 11:01:43;;;;;;;0.85;0.68;;;29.60;47.90;;;;;;4952004;28;20050;-53
2023/07/15 11:04:11;;;;;;;1.00;0.82;;;29.70;47.90;;;;;;4954368;28;20157;-54
2023/07/15 11:06:38;;;;;;;0.95;0.73;;;29.70;47.20;;;;;;4948827;28;20048;-52
2023/07/15 11:09:20;;;;;;;1.73;0.80;;;29.80;47.00;;;;;;4949710;28;20051;-53
2023/07/15 11:11:50;;;;;;;0.88;0.68;;;29.80;48.00;;;;;;4946535;28;20083;-53
2023/07/15 11:14:32;;;;;;;0.80;0.80;;;29.90;47.10;;;;;;4953282;28;20432;-53
2023/07/15 11:17:00;;;;;;;1.65;0.85;;;29.90;46.90;;;;;;4944881;28;20057;-54
2023/07/15 11:19:28;;;;;;;0.95;0.80;;;30.10;46.80;;;;;;4953328;28;20053;-54
2023/07/15 11:21:59;;;;;;;1.25;0.65;;;30.10;46.40;;;;;;4949115;28;20071;-54
2023/07/15 11:24:30;;;;;;;1.20;0.90;;;30.20;46.60;;;;;;4952318;28;20098;-54
2023/07/15 11:27:00;;;;;;;1.83;0.70;;;30.20;46.40;;;;;;4946868;28;20090;-53
2023/07/15 11:29:26;;;;;;;0.63;0.60;;;30.30;46.40;;;;;;4949677;28;20468;-53
2023/07/15 11:31:55;;;;;;;1.05;0.77;;;30.30;46.30;;;;;;4951558;28;20504;-51
2023/07/15 11:34:23;;;;;;;0.70;0.60;;;30.40;46.20;;;;;;4952402;28;20039;-50
2023/07/15 11:36:51;;;;;;;1.17;1.00;;;30.50;46.30;;;;;;4949931;28;20039;-49
2023/07/15 11:39:18;;;;;;;1.38;0.65;;;30.50;46.40;;;;;;4947870;28;20114;-55
2023/07/15 11:41:45;;;;;;;2.50;0.95;;;30.60;46.60;;;;;;4942032;28;20043;-53
2023/07/15 11:44:19;;;;;;;3.05;1.30;;;30.60;46.60;;;;;;4949091;28;20129;-53
2023/07/15 11:46:46;;;;;;;1.15;0.70;;;30.70;46.20;;;;;;4942417;28;20055;-55
2023/07/15 11:49:20;;;;;;;5.63;1.48;;;30.70;46.00;;;;;;4952192;28;20778;-53
2023/07/15 11:51:48;;;;;;;1.00;0.80;;;30.80;45.80;;;;;;4947839;28;20456;-49
2023/07/15 11:54:16;;;;;;;0.75;0.75;;;30.70;45.60;;;;;;4950223;28;20121;-56
2023/07/15 11:56:45;;;;;;;2.15;0.73;;;30.70;45.70;;;;;;4950146;28;20050;-52
2023/07/15 11:59:26;;;;;;;1.25;1.15;;;30.70;45.80;;;;;;4944689;28;20465;-51
2023/07/15 12:02:03;;;;;;;0.68;0.60;;;30.70;46.10;;;;;;4939548;28;20047;-50
2023/07/15 12:04:30;;;;;;;0.55;0.55;;;30.80;45.70;;;;;;4950951;28;20039;-52
2023/07/15 12:07:03;;;;;;;1.27;0.40;;;30.80;45.50;;;;;;4947267;28;20520;-49
2023/07/15 12:09:31;;;;;;;0.47;0.40;;;30.90;45.70;;;;;;4948003;28;20043;-53
2023/07/15 12:11:59;;;;;;;0.95;0.60;;;30.90;45.30;;;;;;4943683;28;20043;-54
2023/07/15 12:14:26;;;;;;;0.88;0.52;;;31.00;45.30;;;;;;4950190;28;20061;-54
2023/07/15 12:16:55;;;;;;;0.80;0.70;;;31.00;46.10;;;;;;4951082;28;20043;-52
2023/07/15 12:19:23;;;;;;;1.10;0.68;;;31.00;46.10;;;;;;4950879;29;20090;-54
2023/07/15 12:21:50;;;;;;;0.90;0.70;;;31.10;44.80;;;;;;4949550;28;20044;-53
2023/07/15 12:24:17;;;;;;;1.65;0.77;;;31.20;44.60;;;;;;4952049;28;20043;-53
2023/07/15 12:26:44;;;;;;;0.73;0.70;;;31.30;44.90;;;;;;4949846;28;20085;-53
2023/07/15 12:29:10;;;;;;;0.73;0.70;;;31.30;44.30;;;;;;4947821;28;20071;-52
2023/07/15 12:31:37;;;;;;;0.50;0.50;;;31.50;44.30;;;;;;4947500;28;20122;-52
2023/07/15 12:34:04;;;;;;;0.52;0.52;;;31.50;44.60;;;;;;4951724;28;20573;-52
2023/07/15 12:36:30;;;;;;;1.02;1.00;;;31.50;44.20;;;;;;4950810;28;20063;-52
2023/07/15 12:38:57;;;;;;;2.28;0.70;;;31.60;44.20;;;;;;4940957;28;20451;-54
2023/07/15 12:41:26;;;;;;;0.73;0.73;;;31.70;44.20;;;;;;4944279;28;20123;-49
2023/07/15 12:43:53;;;;;;;1.27;0.40;;;31.80;43.90;;;;;;4949747;28;20102;-53
2023/07/15 12:46:20;;;;;;;1.00;0.90;;;31.90;43.70;;;;;;4934050;29;20066;-51
2023/07/15 12:48:48;;;;;;;0.50;0.43;;;31.90;43.80;;;;;;4952123;28;20472;-53
2023/07/15 12:51:15;;;;;;;1.27;0.70;;;32.00;43.90;;;;;;4944086;29;20134;-54
2023/07/15 12:53:42;;;;;;;0.82;0.50;;;32.00;43.30;;;;;;4949041;28;20051;-54
2023/07/15 12:56:12;;;;;;;0.80;0.80;;;32.00;43.50;;;;;;4950876;28;20043;-51
2023/07/15 12:58:42;;;;;;;1.00;0.85;;;32.00;43.60;;;;;;4951442;28;20460;-55